createdAt,value
2017-07-08T00:00:13.036Z,0
2017-07-08T00:00:53.388Z,0
2017-07-08T00:01:34.032Z,0
2017-07-08T00:02:14.285Z,0
2017-07-08T00:02:54.529Z,0
2017-07-08T00:03:34.879Z,0
2017-07-08T00:04:15.014Z,0
2017-07-08T00:04:55.154Z,0
2017-07-08T00:05:35.793Z,0
2017-07-08T00:06:16.234Z,0
2017-07-08T00:06:56.881Z,0
2017-07-08T00:07:37.524Z,0
2017-07-08T00:08:17.869Z,0
2017-07-08T00:08:58.417Z,0
2017-07-08T00:09:38.871Z,0
2017-07-08T00:10:19.337Z,0
2017-07-08T00:11:00.078Z,0
2017-07-08T00:11:40.833Z,0
2017-07-08T00:12:21.078Z,0
2017-07-08T00:13:01.635Z,0
2017-07-08T00:13:41.889Z,0
2017-07-08T00:14:22.532Z,0
2017-07-08T00:15:03.174Z,0
2017-07-08T00:15:43.477Z,0
2017-07-08T00:16:24.020Z,0
2017-07-08T00:17:04.773Z,0
2017-07-08T00:17:44.919Z,0
2017-07-08T00:18:25.157Z,0
2017-07-08T00:19:05.798Z,0
2017-07-08T00:19:46.444Z,0
2017-07-08T00:20:26.993Z,0
2017-07-08T00:21:07.435Z,0
2017-07-08T00:21:47.781Z,0
2017-07-08T00:22:28.141Z,0
2017-07-08T00:23:08.483Z,0
2017-07-08T00:23:48.926Z,0
2017-07-08T00:24:28.962Z,0
2017-07-08T00:25:09.319Z,0
2017-07-08T00:25:49.562Z,0
2017-07-08T00:26:30.396Z,0
2017-07-08T00:27:10.554Z,0
2017-07-08T00:27:52.300Z,0
2017-07-08T00:28:32.946Z,0
2017-07-08T00:29:13.592Z,0
2017-07-08T00:29:53.849Z,0
2017-07-08T00:30:34.089Z,0
2017-07-08T00:31:14.352Z,0
2017-07-08T00:31:54.903Z,0
2017-07-08T00:32:35.042Z,0
2017-07-08T00:33:15.497Z,0
2017-07-08T00:33:55.834Z,0
2017-07-08T00:34:35.978Z,0
2017-07-08T00:35:15.923Z,0
2017-07-08T00:35:55.965Z,0
2017-07-08T00:36:36.015Z,0
2017-07-08T00:37:16.449Z,0
2017-07-08T00:37:56.803Z,0
2017-07-08T00:38:37.046Z,0
2017-07-08T00:39:17.588Z,0
2017-07-08T00:39:57.741Z,0
2017-07-08T00:40:38.285Z,0
2017-07-08T00:41:18.333Z,0
2017-07-08T00:41:58.571Z,0
2017-07-08T00:42:38.817Z,0
2017-07-08T00:43:19.548Z,0
2017-07-08T00:43:59.898Z,0
2017-07-08T00:44:40.460Z,0
2017-07-08T00:45:20.905Z,0
2017-07-08T00:46:01.769Z,0
2017-07-08T00:46:42.154Z,0
2017-07-08T00:47:22.503Z,0
2017-07-08T00:48:03.144Z,0
2017-07-08T00:48:43.587Z,0
2017-07-08T00:49:23.937Z,0
2017-07-08T00:50:03.978Z,0
2017-07-08T00:50:44.624Z,0
2017-07-08T00:51:24.765Z,0
2017-07-08T00:52:05.308Z,0
2017-07-08T00:52:46.150Z,0
2017-07-08T00:53:26.704Z,0
2017-07-08T00:54:07.148Z,0
2017-07-08T00:54:47.694Z,0
2017-07-08T00:55:28.144Z,0
2017-07-08T00:56:08.383Z,0
2017-07-08T00:56:49.049Z,0
2017-07-08T00:57:29.293Z,0
2017-07-08T00:58:09.739Z,0
2017-07-08T00:58:50.183Z,0
2017-07-08T00:59:30.329Z,0
2017-07-08T01:00:10.777Z,0
2017-07-08T01:00:51.526Z,0
2017-07-08T01:01:32.077Z,0
2017-07-08T01:02:12.322Z,0
2017-07-08T01:02:52.574Z,0
2017-07-08T01:03:32.912Z,0
2017-07-08T01:04:13.482Z,0
2017-07-08T01:04:53.437Z,0
2017-07-08T01:05:33.965Z,0
2017-07-08T01:06:14.010Z,0
2017-07-08T01:06:54.254Z,0
2017-07-08T01:07:34.801Z,0
2017-07-08T01:08:15.244Z,0
2017-07-08T01:08:55.796Z,0
2017-07-08T01:09:36.642Z,0
2017-07-08T01:10:17.195Z,0
2017-07-08T01:10:57.846Z,0
2017-07-08T01:11:38.408Z,0
2017-07-08T01:12:19.271Z,0
2017-07-08T01:12:59.916Z,0
2017-07-08T01:13:40.765Z,0
2017-07-08T01:14:21.506Z,0
2017-07-08T01:15:02.148Z,0
2017-07-08T01:15:43.003Z,0
2017-07-08T01:16:24.133Z,0
2017-07-08T01:17:04.688Z,0
2017-07-08T01:17:45.133Z,0
2017-07-08T01:18:25.290Z,0
2017-07-08T01:19:05.743Z,0
2017-07-08T01:19:45.989Z,0
2017-07-08T01:20:26.435Z,0
2017-07-08T01:21:06.281Z,0
2017-07-08T01:21:46.825Z,0
2017-07-08T01:22:26.972Z,0
2017-07-08T01:23:07.720Z,0
2017-07-08T01:23:48.370Z,0
2017-07-08T01:24:28.613Z,0
2017-07-08T01:25:09.056Z,0
2017-07-08T01:25:49.310Z,0
2017-07-08T01:26:30.307Z,0
2017-07-08T01:27:10.643Z,0
2017-07-08T01:27:50.892Z,0
2017-07-08T01:28:31.337Z,0
2017-07-08T01:29:11.785Z,0
2017-07-08T01:29:52.031Z,0
2017-07-08T01:30:32.377Z,0
2017-07-08T01:31:13.024Z,0
2017-07-08T01:31:53.176Z,0
2017-07-08T01:32:33.416Z,0
2017-07-08T01:33:15.773Z,0
2017-07-08T01:33:56.311Z,0
2017-07-08T01:34:36.257Z,0
2017-07-08T01:35:16.706Z,0
2017-07-08T01:35:56.747Z,0
2017-07-08T01:36:36.698Z,0
2017-07-08T01:37:16.841Z,0
2017-07-08T01:37:57.285Z,0
2017-07-08T01:38:37.438Z,0
2017-07-08T01:39:17.886Z,0
2017-07-08T01:39:58.228Z,0
2017-07-08T01:40:38.582Z,0
2017-07-08T01:41:18.828Z,0
2017-07-08T01:41:59.180Z,0
2017-07-08T01:42:39.429Z,0
2017-07-08T01:43:19.861Z,0
2017-07-08T01:44:00.207Z,0
2017-07-08T01:44:40.746Z,0
2017-07-08T01:45:20.992Z,0
2017-07-08T01:46:01.446Z,0
2017-07-08T01:46:42.015Z,0
2017-07-08T01:47:22.265Z,0
2017-07-08T01:48:02.705Z,0
2017-07-08T01:48:43.249Z,0
2017-07-08T01:49:23.489Z,0
2017-07-08T01:50:03.932Z,0
2017-07-08T01:50:44.375Z,0
2017-07-08T01:51:24.520Z,0
2017-07-08T01:52:05.058Z,0
2017-07-08T01:52:45.591Z,0
2017-07-08T01:53:25.837Z,0
2017-07-08T01:54:06.077Z,0
2017-07-08T01:54:46.422Z,0
2017-07-08T01:55:26.868Z,0
2017-07-08T01:56:07.006Z,0
2017-07-08T01:56:47.465Z,0
2017-07-08T01:57:27.806Z,0
2017-07-08T01:58:08.447Z,0
2017-07-08T01:58:49.093Z,0
2017-07-08T01:59:29.431Z,0
2017-07-08T02:00:09.785Z,0
2017-07-08T02:00:50.327Z,0
2017-07-08T02:01:30.270Z,0
2017-07-08T02:02:10.714Z,0
2017-07-08T02:02:51.458Z,0
2017-07-08T02:03:31.501Z,0
2017-07-08T02:04:11.843Z,0
2017-07-08T02:04:52.085Z,0
2017-07-08T02:05:32.716Z,0
2017-07-08T02:06:12.666Z,0
2017-07-08T02:06:52.605Z,0
2017-07-08T02:07:32.747Z,0
2017-07-08T02:08:13.178Z,0
2017-07-08T02:08:53.819Z,0
2017-07-08T02:09:34.367Z,0
2017-07-08T02:10:14.710Z,0
2017-07-08T02:10:54.850Z,0
2017-07-08T02:11:35.206Z,0
2017-07-08T02:12:15.845Z,0
2017-07-08T02:12:56.092Z,0
2017-07-08T02:13:36.431Z,0
2017-07-08T02:14:16.774Z,0
2017-07-08T02:14:56.911Z,0
2017-07-08T02:15:37.455Z,0
2017-07-08T02:16:17.496Z,0
2017-07-08T02:16:57.952Z,0
2017-07-08T02:17:38.395Z,0
2017-07-08T02:18:18.753Z,0
2017-07-08T02:18:59.512Z,0
2017-07-08T02:19:40.353Z,0
2017-07-08T02:20:20.529Z,0
2017-07-08T02:21:00.966Z,0
2017-07-08T02:21:41.408Z,0
2017-07-08T02:22:22.256Z,0
2017-07-08T02:23:02.201Z,0
2017-07-08T02:23:42.544Z,0
2017-07-08T02:24:22.789Z,0
2017-07-08T02:25:02.733Z,0
2017-07-08T02:25:42.869Z,0
2017-07-08T02:26:23.221Z,0
2017-07-08T02:27:03.258Z,0
2017-07-08T02:27:43.702Z,0
2017-07-08T02:28:24.140Z,0
2017-07-08T02:29:04.581Z,0
2017-07-08T02:29:44.932Z,0
2017-07-08T02:30:25.370Z,0
2017-07-08T02:31:05.609Z,0
2017-07-08T02:31:46.359Z,0
2017-07-08T02:32:26.400Z,0
2017-07-08T02:33:06.840Z,0
2017-07-08T02:33:47.283Z,0
2017-07-08T02:34:27.124Z,0
2017-07-08T02:35:07.565Z,0
2017-07-08T02:35:47.910Z,0
2017-07-08T02:36:28.367Z,0
2017-07-08T02:37:08.683Z,0
2017-07-08T02:37:48.928Z,0
2017-07-08T02:38:29.265Z,0
2017-07-08T02:39:09.705Z,0
2017-07-08T02:39:50.045Z,0
2017-07-08T02:40:31.088Z,0
2017-07-08T02:41:11.731Z,0
2017-07-08T02:41:51.968Z,0
2017-07-08T02:42:32.312Z,0
2017-07-08T02:43:12.652Z,0
2017-07-08T02:43:52.892Z,0
2017-07-08T02:44:33.734Z,0
2017-07-08T02:45:14.083Z,0
2017-07-08T02:45:54.522Z,0
2017-07-08T02:46:34.862Z,0
2017-07-08T02:47:14.903Z,0
2017-07-08T02:47:55.041Z,0
2017-07-08T02:48:35.381Z,0
2017-07-08T02:49:15.421Z,0
2017-07-08T02:49:55.466Z,0
2017-07-08T02:50:35.608Z,0
2017-07-08T02:51:15.946Z,0
2017-07-08T02:51:56.196Z,0
2017-07-08T02:52:36.239Z,0
2017-07-08T02:53:16.585Z,0
2017-07-08T02:53:57.120Z,0
2017-07-08T02:54:37.276Z,0
2017-07-08T02:55:17.416Z,0
2017-07-08T02:55:57.964Z,0
2017-07-08T02:56:38.330Z,0
2017-07-08T02:57:18.880Z,0
2017-07-08T02:57:59.233Z,0
2017-07-08T02:58:39.271Z,0
2017-07-08T02:59:19.819Z,0
2017-07-08T02:59:59.758Z,0
2017-07-08T03:00:40.397Z,0
2017-07-08T03:01:20.731Z,0
2017-07-08T03:02:01.481Z,0
2017-07-08T03:02:41.442Z,0
2017-07-08T03:03:21.687Z,0
2017-07-08T03:04:02.046Z,0
2017-07-08T03:04:42.089Z,0
2017-07-08T03:05:22.141Z,0
2017-07-08T03:06:02.483Z,0
2017-07-08T03:06:42.528Z,0
2017-07-08T03:07:22.873Z,0
2017-07-08T03:08:03.117Z,0
2017-07-08T03:08:43.362Z,0
2017-07-08T03:09:23.903Z,0
2017-07-08T03:10:04.043Z,0
2017-07-08T03:10:44.498Z,0
2017-07-08T03:11:24.944Z,0
2017-07-08T03:12:05.084Z,0
2017-07-08T03:12:45.622Z,0
2017-07-08T03:13:26.079Z,0
2017-07-08T03:14:06.521Z,0
2017-07-08T03:14:47.066Z,0
2017-07-08T03:15:27.114Z,0
2017-07-08T03:16:07.156Z,0
2017-07-08T03:16:47.621Z,5
2017-07-08T03:17:27.857Z,5
2017-07-08T03:18:07.902Z,5
2017-07-08T03:18:48.143Z,5
2017-07-08T03:19:28.280Z,5
2017-07-08T03:20:08.728Z,5
2017-07-08T03:20:48.871Z,5
2017-07-08T03:21:29.119Z,5
2017-07-08T03:22:09.455Z,5
2017-07-08T03:22:50.104Z,5
2017-07-08T03:23:30.149Z,5
2017-07-08T03:24:10.493Z,5
2017-07-08T03:24:50.734Z,5
2017-07-08T03:25:30.672Z,5
2017-07-08T03:26:11.222Z,5
2017-07-08T03:26:51.368Z,5
2017-07-08T03:27:31.413Z,5
2017-07-08T03:28:11.753Z,5
2017-07-08T03:28:51.599Z,10
2017-07-08T03:29:31.939Z,10
2017-07-08T03:30:12.785Z,10
2017-07-08T03:30:53.539Z,10
2017-07-08T03:31:34.077Z,10
2017-07-08T03:32:14.226Z,10
2017-07-08T03:32:54.662Z,10
2017-07-08T03:33:35.517Z,10
2017-07-08T03:34:15.859Z,10
2017-07-08T03:34:56.208Z,10
2017-07-08T03:35:36.954Z,10
2017-07-08T03:36:17.398Z,15
2017-07-08T03:36:58.004Z,15
2017-07-08T03:37:38.591Z,15
2017-07-08T03:38:19.935Z,15
2017-07-08T03:39:00.384Z,15
2017-07-08T03:39:40.922Z,15
2017-07-08T03:40:20.969Z,15
2017-07-08T03:41:01.422Z,15
2017-07-08T03:41:42.055Z,15
2017-07-08T03:42:22.098Z,15
2017-07-08T03:43:02.443Z,15
2017-07-08T03:43:42.888Z,20
2017-07-08T03:44:23.235Z,20
2017-07-08T03:45:03.280Z,20
2017-07-08T03:45:43.422Z,20
2017-07-08T03:46:23.765Z,20
2017-07-08T03:47:03.713Z,20
2017-07-08T03:47:44.215Z,25
2017-07-08T03:48:24.364Z,25
2017-07-08T03:49:04.615Z,25
2017-07-08T03:49:44.765Z,30
2017-07-08T03:50:24.910Z,30
2017-07-08T03:51:05.468Z,30
2017-07-08T03:51:45.405Z,30
2017-07-08T03:52:25.348Z,30
2017-07-08T03:53:05.698Z,30
2017-07-08T03:53:46.648Z,30
2017-07-08T03:54:27.100Z,30
2017-07-08T03:55:07.535Z,30
2017-07-08T03:55:47.887Z,30
2017-07-08T03:56:28.129Z,30
2017-07-08T03:57:08.182Z,30
2017-07-08T03:57:48.626Z,35
2017-07-08T03:58:29.076Z,35
2017-07-08T03:59:09.413Z,40
2017-07-08T03:59:49.955Z,40
2017-07-08T04:00:30.913Z,40
2017-07-08T04:01:11.455Z,45
2017-07-08T04:01:51.748Z,45
2017-07-08T04:02:31.946Z,45
2017-07-08T04:03:12.089Z,50
2017-07-08T04:03:52.842Z,50
2017-07-08T04:04:33.289Z,50
2017-07-08T04:05:13.740Z,50
2017-07-08T04:05:54.091Z,50
2017-07-08T04:06:34.453Z,50
2017-07-08T04:07:14.899Z,50
2017-07-08T04:07:55.235Z,45
2017-07-08T04:08:36.199Z,45
2017-07-08T04:09:16.836Z,45
2017-07-08T04:09:57.089Z,45
2017-07-08T04:10:37.732Z,50
2017-07-08T04:11:17.973Z,50
2017-07-08T04:11:58.128Z,50
2017-07-08T04:12:38.773Z,55
2017-07-08T04:13:19.125Z,60
2017-07-08T04:13:59.464Z,60
2017-07-08T04:14:40.124Z,60
2017-07-08T04:15:20.380Z,55
2017-07-08T04:16:00.830Z,55
2017-07-08T04:16:40.990Z,55
2017-07-08T04:17:21.224Z,55
2017-07-08T04:18:01.367Z,55
2017-07-08T04:18:41.406Z,60
2017-07-08T04:19:21.560Z,65
2017-07-08T04:20:01.601Z,65
2017-07-08T04:20:41.745Z,70
2017-07-08T04:21:22.094Z,80
2017-07-08T04:22:02.038Z,85
2017-07-08T04:22:41.985Z,90
2017-07-08T04:23:22.021Z,95
2017-07-08T04:24:02.173Z,100
2017-07-08T04:24:42.821Z,105
2017-07-08T04:25:23.563Z,105
2017-07-08T04:26:03.914Z,105
2017-07-08T04:26:44.761Z,110
2017-07-08T04:27:25.012Z,110
2017-07-08T04:28:05.360Z,115
2017-07-08T04:28:45.310Z,110
2017-07-08T04:29:25.854Z,115
2017-07-08T04:30:05.901Z,110
2017-07-08T04:30:45.950Z,105
2017-07-08T04:31:26.587Z,105
2017-07-08T04:32:07.132Z,110
2017-07-08T04:32:47.780Z,115
2017-07-08T04:33:28.117Z,120
2017-07-08T04:34:08.067Z,120
2017-07-08T04:34:48.315Z,125
2017-07-08T04:35:28.566Z,130
2017-07-08T04:36:09.112Z,130
2017-07-08T04:36:49.763Z,130
2017-07-08T04:37:30.403Z,125
2017-07-08T04:38:10.550Z,125
2017-07-08T04:38:51.293Z,125
2017-07-08T04:39:32.040Z,125
2017-07-08T04:40:12.497Z,130
2017-07-08T04:40:52.761Z,125
2017-07-08T04:41:33.213Z,125
2017-07-08T04:42:13.548Z,125
2017-07-08T04:42:54.105Z,130
2017-07-08T04:43:34.248Z,130
2017-07-08T04:44:14.404Z,135
2017-07-08T04:44:54.752Z,135
2017-07-08T04:45:34.900Z,130
2017-07-08T04:46:14.944Z,130
2017-07-08T04:46:55.282Z,125
2017-07-08T04:47:35.332Z,125
2017-07-08T04:48:16.032Z,125
2017-07-08T04:48:56.322Z,125
2017-07-08T04:49:36.775Z,120
2017-07-08T04:50:17.418Z,120
2017-07-08T04:50:57.773Z,120
2017-07-08T04:51:38.110Z,115
2017-07-08T04:52:18.453Z,115
2017-07-08T04:52:58.798Z,115
2017-07-08T04:53:39.653Z,120
2017-07-08T04:54:20.188Z,125
2017-07-08T04:55:00.821Z,135
2017-07-08T04:55:41.274Z,145
2017-07-08T04:56:21.223Z,155
2017-07-08T04:57:01.397Z,160
2017-07-08T04:57:41.844Z,170
2017-07-08T04:58:22.000Z,170
2017-07-08T04:59:02.544Z,170
2017-07-08T04:59:42.798Z,170
2017-07-08T05:00:23.210Z,170
2017-07-08T05:01:03.393Z,180
2017-07-08T05:01:44.145Z,175
2017-07-08T05:02:24.484Z,180
2017-07-08T05:03:04.429Z,185
2017-07-08T05:03:44.777Z,200
2017-07-08T05:04:25.317Z,215
2017-07-08T05:05:05.569Z,230
2017-07-08T05:05:45.913Z,245
2017-07-08T05:06:26.267Z,255
2017-07-08T05:07:06.304Z,265
2017-07-08T05:07:46.845Z,265
2017-07-08T05:08:27.194Z,265
2017-07-08T05:09:08.038Z,270
2017-07-08T05:09:48.083Z,255
2017-07-08T05:10:28.337Z,245
2017-07-08T05:11:08.689Z,240
2017-07-08T05:11:49.030Z,235
2017-07-08T05:12:29.281Z,240
2017-07-08T05:13:09.329Z,235
2017-07-08T05:13:49.772Z,225
2017-07-08T05:14:29.815Z,220
2017-07-08T05:15:10.873Z,205
2017-07-08T05:15:51.520Z,200
2017-07-08T05:16:32.073Z,190
2017-07-08T05:17:12.527Z,190
2017-07-08T05:17:52.773Z,190
2017-07-08T05:18:33.222Z,200
2017-07-08T05:19:13.570Z,200
2017-07-08T05:19:54.111Z,220
2017-07-08T05:20:34.558Z,240
2017-07-08T05:21:14.698Z,265
2017-07-08T05:21:55.144Z,295
2017-07-08T05:22:35.494Z,315
2017-07-08T05:23:15.893Z,330
2017-07-08T05:23:56.191Z,335
2017-07-08T05:24:36.329Z,325
2017-07-08T05:25:16.971Z,295
2017-07-08T05:25:57.423Z,265
2017-07-08T05:26:37.781Z,235
2017-07-08T05:27:17.929Z,215
2017-07-08T05:27:57.770Z,200
2017-07-08T05:28:38.622Z,185
2017-07-08T05:29:18.858Z,180
2017-07-08T05:29:59.509Z,170
2017-07-08T05:30:39.949Z,160
2017-07-08T05:31:20.012Z,155
2017-07-08T05:32:00.397Z,150
2017-07-08T05:32:40.950Z,145
2017-07-08T05:33:21.209Z,145
2017-07-08T05:34:01.556Z,140
2017-07-08T05:34:42.201Z,140
2017-07-08T05:35:22.547Z,140
2017-07-08T05:36:02.799Z,140
2017-07-08T05:36:42.760Z,140
2017-07-08T05:37:23.307Z,140
2017-07-08T05:38:04.056Z,140
2017-07-08T05:38:44.101Z,140
2017-07-08T05:39:24.547Z,145
2017-07-08T05:40:05.293Z,150
2017-07-08T05:40:45.447Z,165
2017-07-08T05:41:25.295Z,180
2017-07-08T05:42:05.450Z,190
2017-07-08T05:42:46.394Z,195
2017-07-08T05:43:26.737Z,200
2017-07-08T05:44:08.860Z,200
2017-07-08T05:44:49.112Z,200
2017-07-08T05:45:29.365Z,190
2017-07-08T05:46:09.905Z,185
2017-07-08T05:46:50.251Z,180
2017-07-08T05:47:30.892Z,175
2017-07-08T05:48:10.933Z,170
2017-07-08T05:48:51.282Z,170
2017-07-08T05:49:31.827Z,170
2017-07-08T05:50:12.071Z,175
2017-07-08T05:50:52.720Z,185
2017-07-08T05:51:32.660Z,190
2017-07-08T05:52:12.904Z,190
2017-07-08T05:52:53.355Z,190
2017-07-08T05:53:34.098Z,185
2017-07-08T05:54:14.663Z,185
2017-07-08T05:54:54.710Z,180
2017-07-08T05:55:35.251Z,180
2017-07-08T05:56:15.508Z,175
2017-07-08T05:56:56.169Z,170
2017-07-08T05:57:36.814Z,160
2017-07-08T05:58:16.968Z,155
2017-07-08T05:58:57.408Z,150
2017-07-08T05:59:37.374Z,145
2017-07-08T06:00:17.917Z,140
2017-07-08T06:00:58.063Z,140
2017-07-08T06:01:38.413Z,140
2017-07-08T06:02:18.959Z,140
2017-07-08T06:02:59.232Z,145
2017-07-08T06:03:39.776Z,150
2017-07-08T06:04:20.614Z,155
2017-07-08T06:05:00.884Z,155
2017-07-08T06:05:41.832Z,155
2017-07-08T06:06:22.082Z,150
2017-07-08T06:07:02.229Z,140
2017-07-08T06:07:42.275Z,135
2017-07-08T06:08:23.010Z,135
2017-07-08T06:09:03.561Z,135
2017-07-08T06:09:44.113Z,130
2017-07-08T06:10:24.561Z,125
2017-07-08T06:11:05.007Z,125
2017-07-08T06:11:45.462Z,125
2017-07-08T06:12:25.710Z,130
2017-07-08T06:13:06.256Z,130
2017-07-08T06:13:46.703Z,135
2017-07-08T06:14:27.050Z,140
2017-07-08T06:15:07.298Z,145
2017-07-08T06:15:47.257Z,150
2017-07-08T06:16:27.818Z,150
2017-07-08T06:17:07.978Z,150
2017-07-08T06:17:47.921Z,150
2017-07-08T06:18:27.968Z,150
2017-07-08T06:19:08.323Z,160
2017-07-08T06:19:48.964Z,170
2017-07-08T06:20:28.916Z,180
2017-07-08T06:21:09.158Z,195
2017-07-08T06:21:50.009Z,210
2017-07-08T06:22:30.556Z,225
2017-07-08T06:23:10.805Z,235
2017-07-08T06:23:50.852Z,230
2017-07-08T06:24:31.403Z,225
2017-07-08T06:25:11.853Z,220
2017-07-08T06:25:51.788Z,215
2017-07-08T06:26:32.955Z,215
2017-07-08T06:27:13.400Z,220
2017-07-08T06:27:53.853Z,225
2017-07-08T06:28:34.600Z,220
2017-07-08T06:29:15.048Z,220
2017-07-08T06:29:55.190Z,220
2017-07-08T06:30:35.331Z,225
2017-07-08T06:31:15.884Z,230
2017-07-08T06:31:56.025Z,240
2017-07-08T06:32:36.573Z,250
2017-07-08T06:33:17.035Z,260
2017-07-08T06:33:57.190Z,275
2017-07-08T06:34:37.535Z,290
2017-07-08T06:35:18.095Z,300
2017-07-08T06:35:58.445Z,315
2017-07-08T06:36:38.832Z,330
2017-07-08T06:37:19.182Z,340
2017-07-08T06:37:59.737Z,345
2017-07-08T06:38:40.085Z,345
2017-07-08T06:39:20.136Z,355
2017-07-08T06:40:00.276Z,360
2017-07-08T06:40:40.625Z,385
2017-07-08T06:41:21.280Z,405
2017-07-08T06:42:01.835Z,425
2017-07-08T06:42:42.389Z,450
2017-07-08T06:43:22.842Z,485
2017-07-08T06:44:02.795Z,480
2017-07-08T06:44:43.037Z,515
2017-07-08T06:45:23.712Z,540
2017-07-08T06:46:04.160Z,570
2017-07-08T06:46:44.311Z,535
2017-07-08T06:47:24.461Z,510
2017-07-08T06:48:04.509Z,435
2017-07-08T06:48:45.467Z,440
2017-07-08T06:49:25.915Z,455
2017-07-08T06:50:06.586Z,475
2017-07-08T06:50:46.941Z,515
2017-07-08T06:51:27.088Z,525
2017-07-08T06:52:07.335Z,530
2017-07-08T06:52:47.985Z,545
2017-07-08T06:53:28.330Z,575
2017-07-08T06:54:08.775Z,605
2017-07-08T06:54:49.123Z,590
2017-07-08T06:55:29.562Z,550
2017-07-08T06:56:09.809Z,505
2017-07-08T06:56:50.360Z,465
2017-07-08T06:57:30.809Z,465
2017-07-08T06:58:11.066Z,465
2017-07-08T06:58:51.314Z,470
2017-07-08T06:59:31.461Z,480
2017-07-08T07:00:12.111Z,475
2017-07-08T07:00:52.373Z,480
2017-07-08T07:01:32.612Z,490
2017-07-08T07:02:12.961Z,500
2017-07-08T07:02:52.710Z,510
2017-07-08T07:03:32.958Z,525
2017-07-08T07:04:13.211Z,540
2017-07-08T07:04:53.660Z,550
2017-07-08T07:05:33.810Z,570
2017-07-08T07:06:13.766Z,600
2017-07-08T07:06:54.518Z,655
2017-07-08T07:07:34.876Z,635
2017-07-08T07:08:14.715Z,605
2017-07-08T07:08:55.165Z,615
2017-07-08T07:09:35.636Z,625
2017-07-08T07:10:15.755Z,585
2017-07-08T07:10:55.906Z,530
2017-07-08T07:11:36.151Z,515
2017-07-08T07:12:16.414Z,530
2017-07-08T07:12:56.762Z,580
2017-07-08T07:13:36.814Z,640
2017-07-08T07:14:16.964Z,745
2017-07-08T07:14:57.219Z,870
2017-07-08T07:15:37.571Z,870
2017-07-08T07:16:17.718Z,865
2017-07-08T07:16:58.082Z,810
2017-07-08T07:17:38.225Z,760
2017-07-08T07:18:18.477Z,725
2017-07-08T07:18:58.135Z,710
2017-07-08T07:19:38.288Z,720
2017-07-08T07:20:18.735Z,725
2017-07-08T07:20:58.993Z,735
2017-07-08T07:21:39.243Z,750
2017-07-08T07:22:19.889Z,740
2017-07-08T07:23:00.851Z,700
2017-07-08T07:23:41.307Z,665
2017-07-08T07:24:21.559Z,630
2017-07-08T07:25:01.963Z,615
2017-07-08T07:25:42.413Z,600
2017-07-08T07:26:22.662Z,580
2017-07-08T07:27:03.171Z,550
2017-07-08T07:27:43.836Z,525
2017-07-08T07:28:24.182Z,500
2017-07-08T07:29:04.636Z,480
2017-07-08T07:29:44.991Z,470
2017-07-08T07:30:25.138Z,460
2017-07-08T07:31:05.288Z,450
2017-07-08T07:31:45.736Z,450
2017-07-08T07:32:26.083Z,435
2017-07-08T07:33:06.737Z,435
2017-07-08T07:33:47.088Z,425
2017-07-08T07:34:27.747Z,425
2017-07-08T07:35:08.196Z,430
2017-07-08T07:35:48.358Z,445
2017-07-08T07:36:30.223Z,460
2017-07-08T07:37:10.675Z,480
2017-07-08T07:37:51.122Z,490
2017-07-08T07:38:31.474Z,490
2017-07-08T07:39:11.815Z,485
2017-07-08T07:39:52.061Z,480
2017-07-08T07:40:32.517Z,480
2017-07-08T07:41:12.154Z,495
2017-07-08T07:41:52.313Z,495
2017-07-08T07:42:32.811Z,505
2017-07-08T07:43:13.057Z,500
2017-07-08T07:43:53.404Z,505
2017-07-08T07:44:33.150Z,505
2017-07-08T07:45:13.609Z,495
2017-07-08T07:45:53.657Z,490
2017-07-08T07:46:34.219Z,485
2017-07-08T07:47:14.673Z,485
2017-07-08T07:47:54.623Z,485
2017-07-08T07:48:34.770Z,485
2017-07-08T07:49:14.916Z,490
2017-07-08T07:49:55.373Z,490
2017-07-08T07:50:35.726Z,490
2017-07-08T07:51:15.868Z,490
2017-07-08T07:51:55.920Z,490
2017-07-08T07:52:36.375Z,495
2017-07-08T07:53:16.916Z,495
2017-07-08T07:53:56.970Z,505
2017-07-08T07:54:37.331Z,535
2017-07-08T07:55:17.486Z,555
2017-07-08T07:55:57.532Z,575
2017-07-08T07:56:38.073Z,575
2017-07-08T07:57:19.036Z,580
2017-07-08T07:57:59.332Z,585
2017-07-08T07:58:39.526Z,600
2017-07-08T07:59:19.785Z,635
2017-07-08T08:00:00.533Z,680
2017-07-08T08:00:41.289Z,745
2017-07-08T08:01:21.627Z,885
2017-07-08T08:02:02.078Z,885
2017-07-08T08:02:42.331Z,900
2017-07-08T08:03:22.702Z,935
2017-07-08T08:04:02.755Z,1055
2017-07-08T08:04:43.202Z,1030
2017-07-08T08:05:23.483Z,1025
2017-07-08T08:06:03.827Z,1040
2017-07-08T08:06:44.299Z,1075
2017-07-08T08:07:24.757Z,1220
2017-07-08T08:08:05.298Z,1360
2017-07-08T08:08:46.065Z,1205
2017-07-08T08:09:26.917Z,1075
2017-07-08T08:10:07.380Z,1055
2017-07-08T08:10:48.038Z,1015
2017-07-08T08:11:28.288Z,1075
2017-07-08T08:12:08.445Z,1020
2017-07-08T08:12:48.593Z,970
2017-07-08T08:13:29.048Z,980
2017-07-08T08:14:09.092Z,825
2017-07-08T08:14:49.241Z,700
2017-07-08T08:15:29.789Z,660
2017-07-08T08:16:10.435Z,630
2017-07-08T08:16:50.599Z,575
2017-07-08T08:17:30.946Z,545
2017-07-08T08:18:10.497Z,530
2017-07-08T08:18:50.744Z,535
2017-07-08T08:19:30.698Z,550
2017-07-08T08:20:10.941Z,585
2017-07-08T08:20:51.502Z,640
2017-07-08T08:21:31.754Z,705
2017-07-08T08:22:12.004Z,760
2017-07-08T08:22:52.554Z,840
2017-07-08T08:23:32.607Z,1035
2017-07-08T08:24:12.960Z,1240
2017-07-08T08:24:53.508Z,1575
2017-07-08T08:25:33.457Z,1430
2017-07-08T08:26:13.911Z,1890
2017-07-08T08:26:54.167Z,2170
2017-07-08T08:27:34.429Z,2785
2017-07-08T08:28:14.686Z,3285
2017-07-08T08:28:55.564Z,3135
2017-07-08T08:29:36.010Z,2405
2017-07-08T08:30:16.560Z,3210
2017-07-08T08:30:56.715Z,3185
2017-07-08T08:31:37.370Z,3040
2017-07-08T08:32:17.534Z,3125
2017-07-08T08:32:57.979Z,3180
2017-07-08T08:33:38.429Z,3200
2017-07-08T08:34:18.881Z,3225
2017-07-08T08:34:59.339Z,2815
2017-07-08T08:35:39.993Z,2895
2017-07-08T08:36:20.258Z,2160
2017-07-08T08:37:00.114Z,2345
2017-07-08T08:37:40.311Z,1660
2017-07-08T08:38:20.873Z,1525
2017-07-08T08:39:01.533Z,1205
2017-07-08T08:39:42.179Z,1090
2017-07-08T08:40:22.430Z,925
2017-07-08T08:41:02.685Z,835
2017-07-08T08:41:43.248Z,770
2017-07-08T08:42:23.639Z,730
2017-07-08T08:43:04.303Z,695
2017-07-08T08:43:44.860Z,670
2017-07-08T08:44:25.116Z,655
2017-07-08T08:45:06.284Z,645
2017-07-08T08:45:46.146Z,640
2017-07-08T08:46:26.505Z,625
2017-07-08T08:47:06.756Z,610
2017-07-08T08:47:47.311Z,595
2017-07-08T08:48:28.265Z,585
2017-07-08T08:49:08.715Z,570
2017-07-08T08:49:49.386Z,560
2017-07-08T08:50:29.930Z,545
2017-07-08T08:51:10.486Z,540
2017-07-08T08:51:51.137Z,530
2017-07-08T08:52:31.997Z,520
2017-07-08T08:53:12.655Z,510
2017-07-08T08:53:53.000Z,510
2017-07-08T08:54:33.246Z,510
2017-07-08T08:55:13.426Z,510
2017-07-08T08:55:54.197Z,515
2017-07-08T08:56:34.248Z,510
2017-07-08T08:57:14.706Z,510
2017-07-08T08:57:55.152Z,515
2017-07-08T08:58:35.801Z,525
2017-07-08T08:59:16.173Z,555
2017-07-08T08:59:56.727Z,580
2017-07-08T09:00:36.681Z,620
2017-07-08T09:01:17.031Z,660
2017-07-08T09:01:57.682Z,705
2017-07-08T09:02:38.250Z,760
2017-07-08T09:03:19.111Z,815
2017-07-08T09:03:59.674Z,890
2017-07-08T09:04:39.640Z,975
2017-07-08T09:05:19.588Z,1065
2017-07-08T09:06:00.036Z,1030
2017-07-08T09:06:40.110Z,1030
2017-07-08T09:07:20.363Z,1085
2017-07-08T09:08:00.927Z,1060
2017-07-08T09:08:41.491Z,1060
2017-07-08T09:09:21.738Z,1360
2017-07-08T09:10:02.209Z,1570
2017-07-08T09:10:42.262Z,1365
2017-07-08T09:11:22.521Z,1445
2017-07-08T09:12:03.285Z,1020
2017-07-08T09:12:43.828Z,930
2017-07-08T09:15:08.154Z,845
2017-07-08T09:17:15.859Z,850
2017-07-08T09:17:56.206Z,865
2017-07-08T09:18:36.522Z,925
2017-07-08T09:19:17.346Z,900
2017-07-08T09:19:57.975Z,940
2017-07-08T09:20:38.205Z,940
2017-07-08T09:21:18.621Z,900
2017-07-08T09:21:59.048Z,920
2017-07-08T09:22:39.464Z,1025
2017-07-08T09:23:19.687Z,920
2017-07-08T09:23:59.711Z,1130
2017-07-08T09:24:39.833Z,1000
2017-07-08T09:25:19.964Z,885
2017-07-08T09:26:00.392Z,835
2017-07-08T09:26:44.938Z,850
2017-07-08T09:27:31.966Z,820
2017-07-08T09:28:17.486Z,820
2017-07-08T09:29:02.927Z,955
2017-07-08T09:29:48.660Z,785
2017-07-08T09:30:35.194Z,775
2017-07-08T09:31:21.511Z,775
2017-07-08T09:32:02.046Z,745
2017-07-08T09:32:48.590Z,870
2017-07-08T09:33:34.341Z,705
2017-07-08T09:34:20.283Z,910
2017-07-08T09:35:06.511Z,670